createdAt,value
2019-02-10T00:05:20.918Z,9.36
2019-02-10T00:07:49.101Z,9.36
2019-02-10T00:10:17.293Z,9.36
2019-02-10T00:19:00.666Z,9.42
2019-02-10T00:21:28.889Z,9.40
2019-02-10T00:23:57.100Z,9.38
2019-02-10T00:26:25.293Z,9.38
2019-02-10T00:28:53.511Z,9.37
2019-02-10T00:31:21.737Z,9.33
2019-02-10T00:33:49.919Z,9.28
2019-02-10T00:36:18.140Z,9.23
2019-02-10T00:42:00.640Z,9.18
2019-02-10T00:44:28.847Z,9.16
2019-02-10T00:46:57.080Z,9.14
2019-02-10T00:49:25.265Z,9.09
2019-02-10T00:51:53.476Z,9.05
2019-02-10T00:54:21.648Z,9.02
2019-02-10T00:56:49.854Z,9.02
2019-02-10T00:59:18.056Z,9.01
2019-02-10T01:01:46.249Z,9.00
2019-02-10T01:04:14.429Z,8.97
2019-02-10T01:06:42.621Z,8.95
2019-02-10T01:09:50.908Z,8.93
2019-02-10T01:12:19.174Z,8.91
2019-02-10T01:14:47.357Z,8.90
2019-02-10T01:17:15.582Z,8.88
2019-02-10T01:19:43.789Z,8.87
2019-02-10T01:22:11.980Z,8.88
2019-02-10T01:24:40.191Z,8.85
2019-02-10T01:27:08.390Z,8.83
2019-02-10T01:29:36.568Z,8.82
2019-02-10T01:32:04.788Z,8.80
2019-02-10T01:34:32.990Z,8.80
2019-02-10T01:37:01.202Z,8.74
2019-02-10T01:39:29.387Z,8.69
2019-02-10T01:41:57.590Z,8.68
2019-02-10T01:44:25.781Z,8.68
2019-02-10T01:46:53.998Z,8.65
2019-02-10T01:49:22.177Z,8.65
2019-02-10T01:52:30.486Z,8.67
2019-02-10T01:54:58.672Z,8.67
2019-02-10T01:57:26.869Z,8.67
2019-02-10T01:59:55.088Z,8.64
2019-02-10T02:02:23.254Z,8.64
2019-02-10T02:04:51.458Z,8.61
2019-02-10T02:07:19.662Z,8.58
2019-02-10T02:09:47.840Z,8.57
2019-02-10T02:12:16.027Z,8.58
2019-02-10T02:14:44.227Z,8.58
2019-02-10T02:17:12.405Z,8.56
2019-02-10T02:19:40.627Z,8.56
2019-02-10T02:22:08.805Z,8.54
2019-02-10T02:24:37.011Z,8.51
2019-02-10T02:27:05.194Z,8.48
2019-02-10T02:29:33.387Z,8.48
2019-02-10T02:32:01.564Z,8.48
2019-02-10T02:34:29.763Z,8.46
2019-02-10T02:37:07.318Z,8.45
2019-02-10T02:39:27.909Z,8.44
2019-02-10T02:41:56.085Z,8.42
2019-02-10T02:44:24.304Z,8.42
2019-02-10T02:46:52.512Z,8.45
2019-02-10T02:49:40.166Z,8.49
2019-02-10T02:52:08.344Z,8.50
2019-02-10T02:54:36.532Z,8.50
2019-02-10T02:57:04.717Z,8.50
2019-02-10T02:59:32.945Z,8.50
2019-02-10T03:05:15.258Z,8.53
2019-02-10T03:07:43.436Z,8.55
2019-02-10T03:10:11.624Z,8.54
2019-02-10T03:12:39.837Z,8.55
2019-02-10T03:15:27.462Z,8.55
2019-02-10T03:17:55.639Z,8.55
2019-02-10T03:20:23.827Z,8.56
2019-02-10T03:22:52.013Z,8.55
2019-02-10T03:25:20.223Z,8.54
2019-02-10T03:27:48.399Z,8.51
2019-02-10T03:30:16.612Z,8.53
2019-02-10T03:32:44.795Z,8.55
2019-02-10T03:35:12.989Z,8.56
2019-02-10T03:37:41.165Z,8.59
2019-02-10T03:40:49.497Z,8.60
2019-02-10T03:43:17.677Z,8.61
2019-02-10T03:45:45.873Z,8.58
2019-02-10T03:48:14.052Z,8.58
2019-02-10T03:50:42.268Z,8.58
2019-02-10T03:53:10.449Z,8.59
2019-02-10T03:55:38.643Z,8.61
2019-02-10T03:58:06.813Z,8.61
2019-02-10T04:00:35.026Z,8.63
2019-02-10T04:03:03.224Z,8.63
2019-02-10T04:05:31.411Z,8.67
2019-02-10T04:08:18.738Z,8.67
2019-02-10T04:10:46.904Z,8.68
2019-02-10T04:13:15.106Z,8.68
2019-02-10T04:15:43.306Z,8.70
2019-02-10T04:18:11.491Z,8.74
2019-02-10T04:20:39.720Z,8.77
2019-02-10T04:25:56.785Z,8.84
2019-02-10T04:28:24.956Z,8.88
2019-02-10T04:30:53.141Z,8.91
2019-02-10T04:33:21.317Z,8.94
2019-02-10T04:35:49.502Z,8.98
2019-02-10T04:38:36.809Z,9.00
2019-02-10T04:41:04.997Z,9.05
2019-02-10T04:43:33.209Z,9.09
2019-02-10T04:46:01.413Z,9.11
2019-02-10T04:48:29.627Z,9.12
2019-02-10T04:50:57.825Z,9.13
2019-02-10T04:53:26.047Z,9.15
2019-02-10T04:56:33.025Z,9.17
2019-02-10T04:59:01.225Z,9.17
2019-02-10T05:01:29.426Z,9.17
2019-02-10T05:03:57.643Z,9.16
2019-02-10T05:06:25.814Z,9.15
2019-02-10T05:08:54.004Z,9.17
2019-02-10T05:11:22.202Z,9.17
2019-02-10T05:13:50.388Z,9.18
2019-02-10T05:16:18.565Z,9.20
2019-02-10T05:18:46.784Z,9.22
2019-02-10T05:21:14.970Z,9.22
2019-02-10T05:23:43.160Z,9.24
2019-02-10T05:26:11.337Z,9.23
2019-02-10T05:28:39.541Z,9.24
2019-02-10T05:31:07.710Z,9.24
2019-02-10T05:33:55.013Z,9.25
2019-02-10T05:36:23.189Z,9.25
2019-02-10T05:38:51.390Z,9.25
2019-02-10T05:41:19.568Z,9.24
2019-02-10T05:43:47.760Z,9.25
2019-02-10T05:46:15.986Z,9.26
2019-02-10T05:48:44.128Z,9.26
2019-02-10T05:51:12.312Z,9.28
2019-02-10T05:53:40.507Z,9.26
2019-02-10T05:56:08.709Z,9.26
2019-02-10T05:58:36.899Z,9.27
2019-02-10T06:01:43.882Z,9.24
2019-02-10T06:04:12.076Z,9.26
2019-02-10T06:06:40.266Z,9.24
2019-02-10T06:09:08.458Z,9.23
2019-02-10T06:11:36.636Z,9.20
2019-02-10T06:14:04.855Z,9.17
2019-02-10T06:16:33.027Z,9.17
2019-02-10T06:19:01.247Z,9.15
2019-02-10T06:21:29.419Z,9.12
2019-02-10T06:23:57.631Z,9.09
2019-02-10T06:26:25.834Z,9.04
2019-02-10T06:28:54.058Z,9.04
2019-02-10T06:31:22.224Z,9.02
2019-02-10T06:33:50.404Z,8.99
2019-02-10T06:36:18.613Z,8.94
2019-02-10T06:38:46.788Z,8.85
2019-02-10T06:41:14.971Z,8.80
2019-02-10T06:43:43.147Z,8.77
2019-02-10T06:46:11.341Z,8.71
2019-02-10T06:51:53.178Z,8.68
2019-02-10T06:55:01.506Z,8.66
2019-02-10T06:57:29.716Z,8.67
2019-02-10T07:03:17.279Z,8.61
2019-02-10T07:05:45.488Z,8.61
2019-02-10T07:08:13.689Z,8.56
2019-02-10T07:10:41.879Z,8.53
2019-02-10T07:13:50.172Z,8.50
2019-02-10T07:16:57.179Z,8.49
2019-02-10T07:20:04.154Z,8.46
2019-02-10T07:23:11.157Z,8.43
2019-02-10T07:25:58.791Z,8.41
2019-02-10T07:31:27.718Z,8.35
2019-02-10T07:34:34.717Z,8.31
2019-02-10T07:37:43.078Z,8.27
2019-02-10T07:40:50.096Z,8.25
2019-02-10T07:43:57.085Z,8.25
2019-02-10T07:47:05.402Z,8.20
2019-02-10T07:50:12.369Z,8.10
2019-02-10T07:53:19.388Z,8.07
2019-02-10T08:02:40.868Z,7.97
2019-02-10T08:05:47.869Z,7.96
2019-02-10T08:08:54.860Z,7.94
2019-02-10T08:12:01.875Z,7.92
2019-02-10T08:21:11.217Z,7.89
2019-02-10T08:24:18.165Z,7.86
2019-02-10T08:27:25.212Z,7.87
2019-02-10T08:30:32.199Z,7.87
2019-02-10T08:33:40.512Z,7.87
2019-02-10T08:49:04.505Z,7.87
2019-02-10T08:54:33.757Z,7.84
2019-02-10T08:57:01.938Z,7.85
2019-02-10T09:02:24.598Z,7.87
2019-02-10T09:04:52.791Z,7.85
2019-02-10T09:07:20.971Z,7.85
2019-02-10T09:09:49.159Z,7.85
2019-02-10T09:12:17.364Z,7.84
2019-02-10T09:14:45.550Z,7.81
2019-02-10T09:17:13.725Z,7.81
2019-02-10T09:19:41.923Z,7.79
2019-02-10T09:22:10.116Z,7.78
2019-02-10T09:25:18.425Z,7.79
2019-02-10T09:27:46.605Z,7.79
2019-02-10T09:30:14.795Z,7.80
2019-02-10T09:32:42.972Z,7.81
2019-02-10T09:35:11.186Z,7.83
2019-02-10T09:37:39.373Z,7.83
2019-02-10T09:40:47.704Z,7.81
2019-02-10T09:43:15.880Z,7.81
2019-02-10T09:45:44.077Z,7.77
2019-02-10T09:48:12.246Z,7.73
2019-02-10T09:50:40.438Z,7.71
2019-02-10T09:53:08.623Z,7.68
2019-02-10T09:55:36.831Z,7.65
2019-02-10T09:58:24.433Z,7.64
2019-02-10T10:00:52.624Z,7.63
2019-02-10T10:03:40.232Z,7.63
2019-02-10T10:06:08.451Z,7.61
2019-02-10T10:08:36.630Z,7.59
2019-02-10T10:11:44.940Z,7.57
2019-02-10T10:14:13.121Z,7.57
2019-02-10T10:16:41.333Z,7.56
2019-02-10T10:19:09.521Z,7.59
2019-02-10T10:21:37.715Z,7.63
2019-02-10T10:24:05.917Z,7.64
2019-02-10T10:26:34.102Z,7.69
2019-02-10T10:29:02.282Z,7.72
2019-02-10T10:31:30.468Z,7.76
2019-02-10T10:33:58.641Z,7.75
2019-02-10T10:36:26.861Z,7.74
2019-02-10T10:38:55.056Z,7.75
2019-02-10T10:41:23.249Z,7.76
2019-02-10T10:43:51.425Z,7.75
2019-02-10T10:46:19.615Z,7.72
2019-02-10T10:48:47.819Z,7.71
2019-02-10T10:51:16.011Z,7.71
2019-02-10T10:53:44.226Z,7.70
2019-02-10T10:56:12.497Z,7.75
2019-02-10T10:58:40.658Z,7.77
2019-02-10T11:01:08.853Z,7.76
2019-02-10T11:03:37.041Z,7.76
2019-02-10T11:06:05.210Z,7.79
2019-02-10T11:08:33.400Z,7.83
2019-02-10T11:11:01.576Z,7.89
2019-02-10T11:13:29.765Z,7.92
2019-02-10T11:15:57.943Z,7.92
2019-02-10T11:18:26.160Z,7.89
2019-02-10T11:20:54.346Z,7.88
2019-02-10T11:23:22.556Z,7.89
2019-02-10T11:25:50.729Z,7.91
2019-02-10T11:28:18.938Z,7.93
2019-02-10T11:30:47.112Z,7.92
2019-02-10T11:33:15.380Z,7.88
2019-02-10T11:35:43.568Z,7.89
2019-02-10T11:38:11.755Z,7.93
2019-02-10T11:40:39.957Z,7.96
2019-02-10T11:43:08.156Z,7.98
2019-02-10T11:45:36.333Z,8.01
2019-02-10T11:48:04.519Z,8.00
2019-02-10T11:50:32.695Z,8.00
2019-02-10T11:53:00.883Z,8.00
2019-02-10T11:55:29.060Z,8.03
2019-02-10T11:57:57.269Z,8.03
2019-02-10T12:00:25.455Z,8.05
2019-02-10T12:02:53.665Z,8.06
2019-02-10T12:05:28.776Z,8.08
2019-02-10T12:07:56.963Z,8.13
2019-02-10T12:10:25.166Z,8.14
2019-02-10T12:12:53.378Z,8.16
2019-02-10T12:15:21.551Z,8.19
2019-02-10T12:17:49.753Z,8.22
2019-02-10T12:20:17.924Z,8.25
2019-02-10T12:22:50.350Z,8.27
2019-02-10T12:25:16.030Z,8.32
2019-02-10T12:27:44.203Z,8.37
2019-02-10T12:30:31.825Z,8.41
2019-02-10T12:33:00.017Z,8.43
2019-02-10T12:35:28.209Z,8.41
2019-02-10T12:37:56.398Z,8.39
2019-02-10T12:40:24.572Z,8.39
2019-02-10T12:42:52.744Z,8.40
2019-02-10T12:45:21.002Z,8.41
2019-02-10T12:47:49.164Z,8.42
2019-02-10T12:50:17.341Z,8.42
2019-02-10T12:52:45.520Z,8.43
2019-02-10T12:55:13.716Z,8.46
2019-02-10T12:57:41.903Z,8.46
2019-02-10T13:00:29.541Z,8.46
2019-02-10T13:02:57.737Z,8.48
2019-02-10T13:05:45.355Z,8.54
2019-02-10T13:08:13.532Z,8.55
2019-02-10T13:10:41.722Z,8.55
2019-02-10T13:13:09.905Z,8.56
2019-02-10T13:15:38.118Z,8.61
2019-02-10T13:18:06.286Z,8.65
2019-02-10T13:20:34.472Z,8.68
2019-02-10T13:23:42.771Z,8.72
2019-02-10T13:26:10.955Z,8.70
2019-02-10T13:28:39.130Z,8.69
2019-02-10T13:31:07.372Z,8.70
2019-02-10T13:33:35.550Z,8.72
2019-02-10T13:36:03.747Z,8.74
2019-02-10T13:38:31.922Z,8.79
2019-02-10T13:41:00.116Z,8.82
2019-02-10T13:43:33.412Z,8.87
2019-02-10T13:45:58.195Z,8.88
2019-02-10T13:48:26.392Z,8.96
2019-02-10T13:50:54.587Z,9.01
2019-02-10T13:53:22.760Z,9.04
2019-02-10T13:55:50.968Z,9.09
2019-02-10T13:58:19.146Z,9.13
2019-02-10T14:00:47.356Z,9.18
2019-02-10T14:03:15.533Z,9.23
2019-02-10T14:05:43.723Z,9.27
2019-02-10T14:08:11.902Z,9.33
2019-02-10T14:10:40.128Z,9.39
2019-02-10T14:13:08.304Z,9.45
2019-02-10T14:15:36.488Z,9.51
2019-02-10T14:18:04.674Z,9.58
2019-02-10T14:20:32.859Z,9.64
2019-02-10T14:23:01.076Z,9.71
2019-02-10T14:25:29.313Z,9.75
2019-02-10T14:27:57.503Z,9.80
2019-02-10T14:30:25.677Z,9.83
2019-02-10T14:32:53.930Z,9.87
2019-02-10T14:35:22.131Z,9.90
2019-02-10T14:37:50.345Z,9.93
2019-02-10T14:40:18.547Z,9.99
2019-02-10T14:42:46.815Z,10.02
2019-02-10T14:48:29.096Z,10.09
2019-02-10T14:50:57.300Z,10.12
2019-02-10T14:53:25.505Z,10.13
2019-02-10T14:55:53.686Z,10.17
2019-02-10T14:58:21.882Z,10.19
2019-02-10T15:00:50.091Z,10.22
2019-02-10T15:03:18.280Z,10.23
2019-02-10T15:05:46.461Z,10.25
2019-02-10T15:08:14.680Z,10.24
2019-02-10T15:10:42.858Z,10.26
2019-02-10T15:13:11.072Z,10.25
2019-02-10T15:15:39.254Z,10.25
2019-02-10T15:18:07.452Z,10.25
2019-02-10T15:20:35.643Z,10.26
2019-02-10T15:23:03.853Z,10.25
2019-02-10T15:25:32.038Z,10.25
2019-02-10T15:28:00.259Z,10.26
2019-02-10T15:30:28.443Z,10.26
2019-02-10T15:32:56.661Z,10.27
2019-02-10T15:35:26.092Z,10.30
2019-02-10T15:37:54.806Z,10.32
2019-02-10T15:40:22.993Z,10.32
2019-02-10T15:42:51.204Z,10.31
2019-02-10T15:45:19.381Z,10.27
2019-02-10T15:47:47.639Z,10.28
2019-02-10T15:50:15.851Z,10.28
2019-02-10T15:52:44.036Z,10.30
2019-02-10T15:55:31.680Z,10.31
2019-02-10T15:57:59.878Z,10.31
2019-02-10T16:03:42.207Z,10.31
2019-02-10T16:06:10.411Z,10.29
2019-02-10T16:08:38.612Z,10.28
2019-02-10T16:11:06.792Z,10.28
2019-02-10T16:13:34.989Z,10.26
2019-02-10T16:16:03.175Z,10.28
2019-02-10T16:18:31.390Z,10.29
2019-02-10T16:20:59.570Z,10.30
2019-02-10T16:23:27.748Z,10.30
2019-02-10T16:25:55.941Z,10.26
2019-02-10T16:28:24.117Z,10.25
2019-02-10T16:30:52.310Z,10.24
2019-02-10T16:33:20.502Z,10.24
2019-02-10T16:35:48.740Z,10.27
2019-02-10T16:38:16.902Z,10.32
2019-02-10T16:40:45.102Z,10.40
2019-02-10T16:43:13.294Z,10.41
2019-02-10T16:45:41.487Z,10.39
2019-02-10T16:48:09.697Z,10.44
2019-02-10T16:50:37.897Z,10.44
2019-02-10T16:53:06.075Z,10.43
2019-02-10T16:55:34.271Z,10.45
2019-02-10T16:58:02.450Z,10.48
2019-02-10T17:00:30.674Z,10.51
2019-02-10T17:02:58.858Z,10.44
2019-02-10T17:05:27.050Z,10.42
2019-02-10T17:07:55.254Z,10.48
2019-02-10T17:10:23.456Z,10.49
2019-02-10T17:12:51.654Z,10.46
2019-02-10T17:15:19.840Z,10.47
2019-02-10T17:17:48.022Z,10.47
2019-02-10T17:20:56.341Z,10.45
2019-02-10T17:23:24.524Z,10.53
2019-02-10T17:25:52.760Z,10.49
2019-02-10T17:28:20.934Z,10.42
2019-02-10T17:30:49.125Z,10.36
2019-02-10T17:33:17.308Z,10.35
2019-02-10T17:35:45.508Z,10.30
2019-02-10T17:38:13.718Z,10.30
2019-02-10T17:41:23.085Z,10.25
2019-02-10T17:43:52.031Z,10.28
2019-02-10T17:46:20.238Z,10.20
2019-02-10T17:48:48.430Z,10.08
2019-02-10T17:51:16.613Z,9.97
2019-02-10T17:53:44.792Z,9.89
2019-02-10T17:56:12.982Z,9.80
2019-02-10T17:58:41.236Z,9.70
2019-02-10T18:01:09.437Z,9.64
2019-02-10T18:03:37.611Z,9.56
2019-02-10T18:06:05.827Z,9.51
2019-02-10T18:08:34.024Z,9.47
2019-02-10T18:11:02.192Z,9.42
2019-02-10T18:13:30.369Z,9.40
2019-02-10T18:16:17.672Z,9.35
2019-02-10T18:19:04.990Z,9.30
2019-02-10T18:21:52.299Z,9.25
2019-02-10T18:30:07.609Z,9.12
2019-02-10T18:32:54.940Z,9.08
2019-02-10T18:35:42.257Z,9.03
2019-02-10T18:38:29.571Z,9.02
2019-02-10T18:41:17.150Z,9.04
2019-02-10T18:46:39.564Z,9.00
2019-02-10T18:49:26.880Z,9.01
2019-02-10T18:54:49.539Z,8.91
2019-02-10T18:57:36.917Z,8.85
2019-02-10T19:00:43.658Z,8.82
2019-02-10T19:06:09.859Z,8.65
2019-02-10T19:09:03.616Z,8.62
2019-02-10T19:11:47.440Z,8.56
2019-02-10T19:19:49.371Z,8.41
2019-02-10T19:25:46.557Z,8.34
2019-02-10T19:28:33.875Z,8.32
2019-02-10T19:31:21.166Z,8.28
2019-02-10T19:34:08.495Z,8.17
2019-02-10T19:36:55.790Z,8.11
2019-02-10T19:39:43.127Z,8.03
2019-02-10T19:42:30.450Z,8.05
2019-02-10T19:45:17.756Z,8.04
2019-02-10T19:50:53.937Z,8.01
2019-02-10T19:59:05.297Z,7.71
2019-02-10T20:01:52.602Z,7.51
2019-02-10T20:07:19.075Z,7.26
2019-02-10T20:10:06.397Z,7.12
2019-02-10T20:15:42.571Z,6.87
2019-02-10T20:18:29.864Z,6.81
2019-02-10T20:21:17.177Z,6.77
2019-02-10T20:24:04.497Z,6.71
2019-02-10T20:29:40.672Z,6.52
2019-02-10T20:37:55.953Z,6.29
2019-02-10T20:43:18.479Z,6.03
2019-02-10T20:48:41.191Z,5.73
2019-02-10T20:51:28.502Z,5.56
2019-02-10T20:54:15.819Z,5.50
2019-02-10T20:57:03.132Z,5.44
2019-02-10T20:59:50.420Z,5.36
2019-02-10T21:02:37.733Z,5.25
2019-02-10T21:05:46.048Z,5.16
2019-02-10T21:08:21.565Z,5.12
2019-02-10T21:11:03.460Z,4.95
2019-02-10T21:13:49.226Z,4.80
2019-02-10T21:16:35.080Z,4.73
2019-02-10T21:19:04.899Z,4.61
2019-02-10T21:21:37.392Z,4.51
2019-02-10T21:24:09.624Z,4.48
2019-02-10T21:26:48.253Z,4.43
2019-02-10T21:29:18.067Z,4.39
2019-02-10T21:31:47.895Z,4.34
2019-02-10T21:34:17.712Z,4.34
2019-02-10T21:37:03.404Z,4.39
2019-02-10T21:39:33.223Z,4.43
2019-02-10T21:42:03.056Z,4.40
2019-02-10T21:44:49.207Z,4.44
2019-02-10T21:47:22.021Z,4.54
2019-02-10T21:49:50.203Z,4.57
2019-02-10T21:52:18.395Z,4.59
2019-02-10T21:54:46.572Z,4.65
2019-02-10T21:57:14.784Z,4.73
2019-02-10T21:59:42.987Z,4.82
2019-02-10T22:02:11.175Z,4.90
2019-02-10T22:04:39.355Z,4.92
2019-02-10T22:07:07.546Z,4.91
2019-02-10T22:09:35.720Z,4.99
2019-02-10T22:12:03.914Z,5.07
2019-02-10T22:14:32.090Z,5.13
2019-02-10T22:17:00.284Z,5.20
2019-02-10T22:19:28.457Z,5.28
2019-02-10T22:21:56.663Z,5.35
2019-02-10T22:24:24.867Z,5.44
2019-02-10T22:26:53.061Z,5.51
2019-02-10T22:29:21.276Z,5.57
2019-02-10T22:31:49.475Z,5.64
2019-02-10T22:34:17.694Z,5.69
2019-02-10T22:36:45.869Z,5.72
2019-02-10T22:39:14.060Z,5.75
2019-02-10T22:41:42.235Z,5.81
2019-02-10T22:44:10.427Z,5.84
2019-02-10T22:46:38.599Z,5.85
2019-02-10T22:49:06.794Z,5.91
2019-02-10T22:51:34.978Z,5.96
2019-02-10T22:54:03.170Z,6.00
2019-02-10T22:56:31.365Z,6.04
2019-02-10T22:58:59.560Z,6.08
2019-02-10T23:01:27.757Z,6.12
2019-02-10T23:03:55.950Z,6.18
2019-02-10T23:06:24.142Z,6.26
2019-02-10T23:08:52.355Z,6.34
2019-02-10T23:11:20.540Z,6.38
2019-02-10T23:13:48.732Z,6.42
2019-02-10T23:16:16.913Z,6.45
2019-02-10T23:18:45.106Z,6.44
2019-02-10T23:21:13.304Z,6.43
2019-02-10T23:23:41.497Z,6.43
2019-02-10T23:26:09.702Z,6.45
2019-02-10T23:28:37.891Z,6.43
2019-02-10T23:31:06.069Z,6.45
2019-02-10T23:33:34.265Z,6.47
2019-02-10T23:36:02.464Z,6.49
2019-02-10T23:38:30.656Z,6.48
2019-02-10T23:40:58.862Z,6.48
2019-02-10T23:43:27.093Z,6.47
2019-02-10T23:45:55.235Z,6.47
2019-02-10T23:48:23.470Z,6.48
2019-02-10T23:50:51.643Z,6.42
2019-02-10T23:53:19.819Z,6.41
2019-02-10T23:55:48.020Z,6.35
2019-02-10T23:58:16.195Z,6.33
